Flight Track Log - Related Links

Times and Time Zones

All times are in EDT time to prevent confusion due to time zone crossing. See the UAL6136 flight status page for this flight to view local times or setup timezone preferences in your user account.

Time Position Orientation Groundspeed Altitude Reporting Facility
EDT Latitude Longitude Course Direction KTS MPH feet Rate Location/Type
Tue 12:32:50 PM 41.9333 -87.9000 156° South 171 197 2,400  Level Chicago TRACON
Tue 12:33:56 PM 41.8667 -87.8833 169° South 210 242 5,000 1,881 Climbing Chicago TRACON
Tue 12:34:48 PM 41.8264 -87.8658 162° South 224 258 6,100 1,737 Climbing Chicago Center
Tue 12:35:50 PM 41.7594 -87.8164 151° Southeast 270 311 8,300 2,468 Climbing Chicago Center
Tue 12:36:52 PM 41.6750 -87.7558 152° Southeast 285 328 11,200 2,419 Climbing Chicago Center
Tue 12:37:54 PM 41.6039 -87.7022 151° Southeast 291 335 13,300 1,452 Climbing Chicago Center
Tue 12:38:00 PM 41.5413 -87.4645 156° South  Level Estimated
Tue 12:38:56 PM 41.5250 -87.6453 152° Southeast 320 368 14,200  Level Chicago Center
Tue 12:39:58 PM 41.4361 -87.5806 151° Southeast 356 410 15,100 1,065 Climbing Chicago Center
Tue 12:41:00 PM 41.3364 -87.5567 170° South 364 419 16,400 1,210 Climbing Chicago Center
Tue 12:42:02 PM 41.2331 -87.5389 173° South 371 427 17,600 1,210 Climbing Chicago Center
Tue 12:43:04 PM 41.1286 -87.5139 170° South 378 435 18,900 1,258 Climbing Chicago Center
Tue 12:44:06 PM 41.0014 -87.4744 167° South 391 450 20,200 1,113 Climbing Chicago Center
Tue 12:45:08 PM 40.8969 -87.4131 156° South 412 474 21,200 968 Climbing Chicago Center
Tue 12:46:10 PM 40.7900 -87.3522 157° South 419 482 22,200 1,016 Climbing Chicago Center
Tue 12:47:12 PM 40.6811 -87.2894 156° South 427 491 23,300 968 Climbing Chicago Center
Tue 12:48:14 PM 40.5706 -87.2272 157° South 433 498 24,200 871 Climbing Chicago Center
Tue 12:49:16 PM 40.4361 -87.1508 157° South 438 504 25,100 871 Climbing Chicago Center
Tue 12:50:18 PM 40.3222 -87.0883 157° South 446 513 26,000 823 Climbing Chicago Center
Tue 12:51:20 PM 40.2097 -87.0242 156° South 444 511 26,800 816 Climbing Chicago Center
Tue 12:52:23 PM 40.1042 -86.9478 151° Southeast 440 506 27,700 849 Climbing Chicago Center
Tue 12:53:06 PM 40.0400 -86.8822 142° Southeast 440 506 28,300 743 Climbing Indianapolis Center
Tue 12:54:08 PM 39.9278 -86.7617 141° Southeast 435 501 29,000 339 Climbing Indianapolis Center
Tue 12:55:10 PM 39.8311 -86.6583 141° Southeast 442 509 29,000 48 Level Indianapolis Center
Tue 12:56:12 PM 39.7319 -86.5500 140° Southeast 456 525 29,100 484 Climbing Indianapolis Center
Tue 12:57:14 PM 39.6314 -86.4436 141° Southeast 462 532 30,000 919 Climbing Indianapolis Center
Tue 12:58:16 PM 39.5342 -86.3397 140° Southeast 454 522 31,000 919 Climbing Indianapolis Center
Tue 12:59:18 PM 39.4364 -86.2353 140° Southeast 451 519 31,900 871 Climbing Indianapolis Center
Tue 01:00:20 PM 39.3375 -86.1317 141° Southeast 453 521 32,800 871 Climbing Indianapolis Center
Tue 01:01:22 PM 39.2397 -86.0286 141° Southeast 452 520 33,700 968 Climbing Indianapolis Center
Tue 01:02:24 PM 39.1239 -85.9064 141° Southeast 448 516 34,800 629 Climbing Indianapolis Center
Tue 01:03:26 PM 39.0264 -85.8053 141° Southeast 447 514 35,000 97 Climbing Indianapolis Center
Tue 01:04:28 PM 38.9286 -85.7039 141° Southeast 447 514 35,000  Level Indianapolis Center
Tue 01:05:30 PM 38.8317 -85.6031 141° Southeast 447 514 35,000  Level Indianapolis Center
Tue 01:06:32 PM 38.7317 -85.4981 141° Southeast 459 528 35,000  Level Indianapolis Center
Tue 01:07:33 PM 38.6306 -85.3944 141° Southeast 463 533 35,000  Level Indianapolis Center
Tue 01:08:35 PM 38.5289 -85.2897 141° Southeast 466 536 35,000  Level Indianapolis Center
Tue 01:09:37 PM 38.4203 -85.1800 142° Southeast 468 539 35,000  Level Indianapolis Center
Tue 01:10:39 PM 38.3192 -85.0767 141° Southeast 467 537 35,000  Level Indianapolis Center
Tue 01:11:41 PM 38.2031 -84.9558 141° Southeast 463 533 35,000  Level Indianapolis Center
Tue 01:12:43 PM 38.1003 -84.8519 141° Southeast 467 537 35,000  Level Indianapolis Center
Tue 01:13:45 PM 37.9981 -84.7506 142° Southeast 466 536 35,000  Level Indianapolis Center
Tue 01:14:46 PM 37.8961 -84.6489 142° Southeast 466 536 35,000  Level Indianapolis Center
Tue 01:15:48 PM 37.7933 -84.5469 142° Southeast 467 537 35,000  Level Indianapolis Center
Tue 01:16:50 PM 37.6911 -84.4464 142° Southeast 466 536 35,000  Level Indianapolis Center
Tue 01:17:52 PM 37.5714 -84.3269 142° Southeast 469 540 35,000  Level Indianapolis Center
Tue 01:18:54 PM 37.4686 -84.2242 142° Southeast 468 539 35,000  Level Indianapolis Center
Tue 01:19:56 PM 37.3658 -84.1256 143° Southeast 466 536 35,000  Level Indianapolis Center
Tue 01:20:57 PM 37.2639 -84.0233 141° Southeast 467 537 35,000  Level Indianapolis Center
Tue 01:21:59 PM 37.1614 -83.9247 143° Southeast 465 535 35,000  Level Indianapolis Center
Tue 01:23:01 PM 37.0422 -83.8083 142° Southeast 467 537 35,000  Level Indianapolis Center
Tue 01:24:03 PM 36.9397 -83.7092 142° Southeast 465 535 35,000  Level Indianapolis Center
Tue 01:25:05 PM 36.8369 -83.6100 142° Southeast 468 539 35,000  Level Indianapolis Center
Tue 01:26:06 PM 36.7336 -83.5103 142° Southeast 469 540 35,000  Level Indianapolis Center
Tue 01:27:08 PM 36.6314 -83.4128 143° Southeast 467 537 35,000  Level Indianapolis Center
Tue 01:28:07 PM 36.5294 -83.3181 143° Southeast 474 545 35,000  Level Atlanta Center
Tue 01:29:07 PM 36.4247 -83.2208 143° Southeast 474 545 35,000  Level Atlanta Center
Tue 01:30:07 PM 36.3239 -83.1189 141° Southeast 468 539 35,000  Level Atlanta Center
Tue 01:31:07 PM 36.2189 -83.0222 143° Southeast 468 539 35,000  Level Atlanta Center
Tue 01:32:07 PM 36.1136 -82.9233 143° Southeast 468 539 35,000  Level Atlanta Center
Tue 01:33:07 PM 36.0128 -82.8272 142° Southeast 468 539 35,000  Level Atlanta Center
Tue 01:34:07 PM 35.9094 -82.7311 143° Southeast 468 539 35,000  Level Atlanta Center
Tue 01:35:07 PM 35.8081 -82.6278 140° Southeast 468 539 35,000  Level Atlanta Center
Tue 01:36:07 PM 35.7214 -82.5142 133° Southeast 461 531 35,000  Level Atlanta Center
Tue 01:37:07 PM 35.6322 -82.3908 132° Southeast 467 537 35,000  Level Atlanta Center
Tue 01:38:07 PM 35.5428 -82.2750 133° Southeast 475 547 35,000  Level Atlanta Center
Tue 01:39:07 PM 35.4533 -82.1547 132° Southeast 469 540 35,000  Level Atlanta Center
Tue 01:40:07 PM 35.3492 -82.0322 136° Southeast 469 540 35,000  Level Atlanta Center
Tue 01:41:07 PM 35.2256 -82.0022 169° South 441 507 35,000  Level Atlanta Center
Tue 01:42:07 PM 35.1039 -81.9619 165° South 448 516 35,000  Level Atlanta Center
Tue 01:43:07 PM 34.9881 -81.9017 157° South 448 516 35,000  Level Atlanta Center
Tue 01:44:07 PM 34.8803 -81.8208 148° Southeast 448 516 35,000  Level Atlanta Center
Tue 01:45:07 PM 34.7725 -81.7453 150° Southeast 462 532 35,000 -830 Level Atlanta Center
Tue 01:47:15 PM 34.5472 -81.5817 149° Southeast 440 506 32,400 -2,043 Descending Jacksonville Center
Tue 01:48:15 PM 34.4381 -81.5078 151° Southeast 440 506 28,600 -2,700 Descending Jacksonville Center
Tue 01:49:15 PM 34.3267 -81.4267 149° Southeast 450 518 27,000 -2,150 Descending Jacksonville Center
Tue 01:50:15 PM 34.2050 -81.3761 161° South 457 526 24,300 -2,850 Descending Jacksonville Center
Tue 01:51:15 PM 34.0814 -81.3306 163° South 457 526 21,300 -3,000 Descending Jacksonville Center
Tue 01:52:15 PM 33.9783 -81.2622 151° Southeast 445 512 18,300 -2,950 Descending Jacksonville Center
Tue 01:53:15 PM 33.8875 -81.1889 146° Southeast 418 481 15,400 -2,950 Descending Jacksonville Center
Tue 01:54:15 PM 33.7967 -81.1181 147° Southeast 404 465 12,400 -2,250 Descending Jacksonville Center
Tue 01:55:15 PM 33.7103 -81.0450 145° Southeast 387 445 10,900 -700 Descending Jacksonville Center
Tue 01:56:15 PM 33.6236 -80.9794 148° Southeast 381 438 11,000 50 Climbing Jacksonville Center
Tue 01:57:15 PM 33.5328 -80.9092 147° Southeast 381 438 11,000  Level Jacksonville Center
Tue 01:58:15 PM 33.4483 -80.8414 146° Southeast 381 438 11,000  Level Jacksonville Center
Tue 01:59:16 PM 33.3575 -80.7714 147° Southeast 381 438 11,000  Level Jacksonville Center
Tue 02:00:15 PM 33.2706 -80.7039 147° Southeast 381 438 11,000 -50 Level Jacksonville Center
Tue 02:01:15 PM 33.2106 -80.6086 127° Southeast 361 415 10,900 -500 Descending Jacksonville Center
Tue 02:02:15 PM 33.1775 -80.5150 113° Southeast 332 382 10,000 -1,450 Descending Jacksonville Center
Tue 02:03:15 PM 33.1486 -80.4239 111° Southeast 302 348 8,000 -1,650 Descending Jacksonville Center
Tue 02:04:15 PM 33.1017 -80.3683 135° Southeast 247 284 6,700 -1,500 Descending Jacksonville Center
Tue 02:05:15 PM 33.0386 -80.3528 168° South 225 259 5,000 -950 Descending Jacksonville Center
Tue 02:06:15 PM 32.9717 -80.3447 174° South 225 259 4,800 -500 Descending Jacksonville Center
Tue 02:07:15 PM 32.9069 -80.3367 174° South 236 272 4,000 -450 Descending Jacksonville Center
Tue 02:08:15 PM 32.8419 -80.3311 176° South 242 278 3,900 -100 Descending Jacksonville Center
Tue 02:10:00 PM 32.8871 -80.0999 79° East  Level Estimated
Tue 02:17:00 PM 32.8833 -80.0333 79° East  Level FlightAware Approximate
Tue 02:18:00 PM 32.8986 -80.0405 79° East  Level Estimated
Tue 02:19:00 PM 32.8986 -80.0405 79° East  Level Estimated
Tue 02:20:00 PM 32.8986 -80.0405 79° East  Level Estimated
Tue 02:21:00 PM 32.8986 -80.0405 79° East  Level Estimated
Tue 02:22:00 PM 32.8986 -80.0405 79° East  Level Estimated
Tue 02:23:00 PM 32.8986 -80.0405 79° East  Level Estimated

Login

Don't have an account? Register now (free) for customized features, flight alerts, and more!